sensor_id;sensor_type;location;lat;lon;timestamp;pressure;altitude;pressure_sealevel;temperature;humidity
59110;BME280;44895;47.438;18.978;2023-04-15T00:00:26;99056.63;;;6.09;100.00
59110;BME280;44895;47.438;18.978;2023-04-15T00:03:31;99043.50;;;6.02;100.00
59110;BME280;44895;47.438;18.978;2023-04-15T00:06:36;99043.09;;;6.14;100.00
59110;BME280;44895;47.438;18.978;2023-04-15T00:09:43;99052.38;;;6.27;100.00
59110;BME280;44895;47.438;18.978;2023-04-15T00:12:47;99048.44;;;6.19;100.00
59110;BME280;44895;47.438;18.978;2023-04-15T00:15:50;99055.47;;;6.15;100.00
59110;BME280;44895;47.438;18.978;2023-04-15T00:18:54;99060.25;;;5.99;100.00
59110;BME280;44895;47.438;18.978;2023-04-15T00:21:59;99061.19;;;5.84;100.00
59110;BME280;44895;47.438;18.978;2023-04-15T00:25:03;99061.63;;;5.72;100.00
59110;BME280;44895;47.438;18.978;2023-04-15T00:28:07;99057.19;;;5.82;100.00
59110;BME280;44895;47.438;18.978;2023-04-15T00:31:11;99048.03;;;6.07;100.00
59110;BME280;44895;47.438;18.978;2023-04-15T00:34:15;99047.16;;;6.12;100.00
59110;BME280;44895;47.438;18.978;2023-04-15T00:37:20;99049.00;;;6.16;100.00
59110;BME280;44895;47.438;18.978;2023-04-15T00:40:24;99050.75;;;6.26;100.00
59110;BME280;44895;47.438;18.978;2023-04-15T00:43:28;99050.31;;;5.95;100.00
59110;BME280;44895;47.438;18.978;2023-04-15T00:46:34;99043.53;;;5.97;100.00
59110;BME280;44895;47.438;18.978;2023-04-15T00:49:38;99041.50;;;6.13;100.00
59110;BME280;44895;47.438;18.978;2023-04-15T00:52:42;99030.47;;;5.85;100.00
59110;BME280;44895;47.438;18.978;2023-04-15T00:55:46;99032.81;;;5.92;100.00
59110;BME280;44895;47.438;18.978;2023-04-15T00:58:50;99035.06;;;6.09;100.00
59110;BME280;44895;47.438;18.978;2023-04-15T01:01:54;99039.97;;;6.26;100.00
59110;BME280;44895;47.438;18.978;2023-04-15T01:04:58;99041.28;;;6.29;100.00
59110;BME280;44895;47.438;18.978;2023-04-15T01:08:01;99041.19;;;6.15;100.00
59110;BME280;44895;47.438;18.978;2023-04-15T01:11:06;99027.72;;;6.34;100.00
59110;BME280;44895;47.438;18.978;2023-04-15T01:14:10;99026.41;;;6.31;100.00
59110;BME280;44895;47.438;18.978;2023-04-15T01:17:14;99025.25;;;6.38;100.00
59110;BME280;44895;47.438;18.978;2023-04-15T01:20:18;99031.75;;;6.36;100.00
59110;BME280;44895;47.438;18.978;2023-04-15T01:23:23;99034.59;;;6.45;100.00
59110;BME280;44895;47.438;18.978;2023-04-15T01:26:26;99032.91;;;6.49;100.00
59110;BME280;44895;47.438;18.978;2023-04-15T01:29:31;99032.34;;;6.52;100.00
59110;BME280;44895;47.438;18.978;2023-04-15T01:32:35;99024.81;;;6.49;100.00
59110;BME280;44895;47.438;18.978;2023-04-15T01:35:39;99029.25;;;6.59;100.00
59110;BME280;44895;47.438;18.978;2023-04-15T01:38:43;99027.44;;;6.55;100.00
59110;BME280;44895;47.438;18.978;2023-04-15T01:41:47;99041.06;;;6.63;100.00
59110;BME280;44895;47.438;18.978;2023-04-15T01:44:52;99043.06;;;6.58;100.00
59110;BME280;44895;47.438;18.978;2023-04-15T01:47:56;99040.84;;;6.60;100.00
59110;BME280;44895;47.438;18.978;2023-04-15T01:51:00;99038.22;;;6.55;100.00
59110;BME280;44895;47.438;18.978;2023-04-15T01:54:04;99041.97;;;6.59;100.00
59110;BME280;44895;47.438;18.978;2023-04-15T01:57:08;99045.22;;;6.56;100.00
59110;BME280;44895;47.438;18.978;2023-04-15T02:00:12;99043.84;;;6.58;100.00
59110;BME280;44895;47.438;18.978;2023-04-15T02:03:19;99051.38;;;6.61;100.00
59110;BME280;44895;47.438;18.978;2023-04-15T02:06:22;99045.50;;;6.73;100.00
59110;BME280;44895;47.438;18.978;2023-04-15T02:09:26;99052.22;;;6.76;100.00
59110;BME280;44895;47.438;18.978;2023-04-15T02:12:30;99053.44;;;6.83;100.00
59110;BME280;44895;47.438;18.978;2023-04-15T02:15:34;99057.69;;;6.71;100.00
59110;BME280;44895;47.438;18.978;2023-04-15T02:18:38;99049.81;;;6.74;100.00
59110;BME280;44895;47.438;18.978;2023-04-15T02:21:42;99046.81;;;6.76;100.00
59110;BME280;44895;47.438;18.978;2023-04-15T02:24:45;99048.84;;;6.84;100.00
59110;BME280;44895;47.438;18.978;2023-04-15T02:27:49;99054.25;;;6.65;100.00
59110;BME280;44895;47.438;18.978;2023-04-15T02:30:53;99052.44;;;6.41;100.00
59110;BME280;44895;47.438;18.978;2023-04-15T02:34:00;99047.69;;;6.71;100.00
59110;BME280;44895;47.438;18.978;2023-04-15T02:37:09;99044.84;;;6.81;100.00
59110;BME280;44895;47.438;18.978;2023-04-15T02:40:13;99054.75;;;6.86;100.00
59110;BME280;44895;47.438;18.978;2023-04-15T02:43:16;99051.22;;;6.52;100.00
59110;BME280;44895;47.438;18.978;2023-04-15T02:46:21;99050.13;;;6.73;100.00
59110;BME280;44895;47.438;18.978;2023-04-15T02:49:25;99055.13;;;6.79;100.00
59110;BME280;44895;47.438;18.978;2023-04-15T02:52:32;99056.59;;;6.91;100.00
59110;BME280;44895;47.438;18.978;2023-04-15T02:55:35;99052.59;;;6.69;100.00
59110;BME280;44895;47.438;18.978;2023-04-15T02:58:40;99051.13;;;6.77;100.00
59110;BME280;44895;47.438;18.978;2023-04-15T03:01:44;99047.75;;;6.85;100.00
59110;BME280;44895;47.438;18.978;2023-04-15T03:04:47;99055.91;;;6.99;100.00
59110;BME280;44895;47.438;18.978;2023-04-15T03:07:51;99038.00;;;6.51;100.00
59110;BME280;44895;47.438;18.978;2023-04-15T03:10:57;99040.19;;;6.49;100.00
59110;BME280;44895;47.438;18.978;2023-04-15T03:14:03;99038.75;;;6.57;100.00
59110;BME280;44895;47.438;18.978;2023-04-15T03:17:11;99041.03;;;6.82;100.00
59110;BME280;44895;47.438;18.978;2023-04-15T03:20:16;99045.28;;;6.89;100.00
59110;BME280;44895;47.438;18.978;2023-04-15T03:23:19;99046.28;;;6.93;100.00
59110;BME280;44895;47.438;18.978;2023-04-15T03:26:29;99047.75;;;6.85;100.00
59110;BME280;44895;47.438;18.978;2023-04-15T03:29:36;99039.56;;;6.90;100.00
59110;BME280;44895;47.438;18.978;2023-04-15T03:32:41;99036.81;;;6.76;100.00
59110;BME280;44895;47.438;18.978;2023-04-15T03:35:45;99040.69;;;6.70;100.00
59110;BME280;44895;47.438;18.978;2023-04-15T03:38:49;99045.28;;;6.89;100.00
59110;BME280;44895;47.438;18.978;2023-04-15T03:41:53;99047.00;;;6.98;100.00
59110;BME280;44895;47.438;18.978;2023-04-15T03:44:56;99043.16;;;6.85;100.00
59110;BME280;44895;47.438;18.978;2023-04-15T03:48:00;99039.38;;;6.87;100.00
59110;BME280;44895;47.438;18.978;2023-04-15T03:51:04;99034.78;;;6.87;100.00
59110;BME280;44895;47.438;18.978;2023-04-15T03:54:08;99040.97;;;6.88;100.00
59110;BME280;44895;47.438;18.978;2023-04-15T03:57:12;99041.06;;;6.63;100.00
59110;BME280;44895;47.438;18.978;2023-04-15T04:00:16;99034.72;;;6.73;100.00
59110;BME280;44895;47.438;18.978;2023-04-15T04:03:19;99039.03;;;6.74;100.00
59110;BME280;44895;47.438;18.978;2023-04-15T04:06:23;99042.81;;;6.73;100.00
59110;BME280;44895;47.438;18.978;2023-04-15T04:09:27;99036.75;;;6.81;100.00
59110;BME280;44895;47.438;18.978;2023-04-15T04:12:30;99039.25;;;6.78;100.00
59110;BME280;44895;47.438;18.978;2023-04-15T04:15:34;99044.84;;;6.81;100.00
59110;BME280;44895;47.438;18.978;2023-04-15T04:18:38;99040.06;;;6.59;100.00
59110;BME280;44895;47.438;18.978;2023-04-15T04:21:41;99034.84;;;6.82;100.00
59110;BME280;44895;47.438;18.978;2023-04-15T04:24:45;99037.16;;;6.89;100.00
59110;BME280;44895;47.438;18.978;2023-04-15T04:27:49;99048.06;;;6.64;100.00
59110;BME280;44895;47.438;18.978;2023-04-15T04:30:53;99046.13;;;6.84;100.00
59110;BME280;44895;47.438;18.978;2023-04-15T04:33:56;99041.84;;;7.02;100.00
59110;BME280;44895;47.438;18.978;2023-04-15T04:37:00;99048.22;;;7.06;100.00
59110;BME280;44895;47.438;18.978;2023-04-15T04:40:04;99050.06;;;7.11;100.00
59110;BME280;44895;47.438;18.978;2023-04-15T04:43:08;99044.19;;;7.23;100.00
59110;BME280;44895;47.438;18.978;2023-04-15T04:46:12;99047.53;;;7.33;100.00
59110;BME280;44895;47.438;18.978;2023-04-15T04:49:16;99038.41;;;7.43;100.00
59110;BME280;44895;47.438;18.978;2023-04-15T04:52:20;99046.09;;;7.22;100.00
59110;BME280;44895;47.438;18.978;2023-04-15T04:55:24;99049.88;;;6.88;100.00
59110;BME280;44895;47.438;18.978;2023-04-15T04:58:28;99050.63;;;7.41;100.00
59110;BME280;44895;47.438;18.978;2023-04-15T05:01:32;99045.75;;;7.57;100.00
59110;BME280;44895;47.438;18.978;2023-04-15T05:04:36;99047.34;;;7.58;100.00
59110;BME280;44895;47.438;18.978;2023-04-15T05:07:40;99051.66;;;7.45;100.00
59110;BME280;44895;47.438;18.978;2023-04-15T05:10:44;99046.94;;;7.50;100.00
59110;BME280;44895;47.438;18.978;2023-04-15T05:13:49;99046.44;;;7.62;100.00
59110;BME280;44895;47.438;18.978;2023-04-15T05:16:52;99047.34;;;8.13;100.00
59110;BME280;44895;47.438;18.978;2023-04-15T05:19:56;99046.22;;;8.42;100.00
59110;BME280;44895;47.438;18.978;2023-04-15T05:23:00;99046.34;;;8.09;100.00
59110;BME280;44895;47.438;18.978;2023-04-15T05:26:04;99052.16;;;8.03;100.00
59110;BME280;44895;47.438;18.978;2023-04-15T05:29:07;99054.06;;;8.16;100.00
59110;BME280;44895;47.438;18.978;2023-04-15T05:32:11;99053.97;;;8.07;100.00
59110;BME280;44895;47.438;18.978;2023-04-15T05:35:15;99052.34;;;8.20;100.00
59110;BME280;44895;47.438;18.978;2023-04-15T05:38:20;99057.63;;;8.39;100.00
59110;BME280;44895;47.438;18.978;2023-04-15T05:41:24;99058.50;;;8.62;100.00
59110;BME280;44895;47.438;18.978;2023-04-15T05:44:27;99064.88;;;8.16;100.00
59110;BME280;44895;47.438;18.978;2023-04-15T05:47:31;99080.69;;;8.37;100.00
59110;BME280;44895;47.438;18.978;2023-04-15T05:50:35;99069.22;;;8.40;100.00
59110;BME280;44895;47.438;18.978;2023-04-15T05:53:39;99068.94;;;8.55;100.00
59110;BME280;44895;47.438;18.978;2023-04-15T05:56:44;99072.81;;;8.77;100.00
59110;BME280;44895;47.438;18.978;2023-04-15T05:59:48;99072.28;;;8.24;100.00
59110;BME280;44895;47.438;18.978;2023-04-15T06:02:51;99076.06;;;8.51;100.00
59110;BME280;44895;47.438;18.978;2023-04-15T06:05:56;99074.06;;;9.16;100.00
59110;BME280;44895;47.438;18.978;2023-04-15T06:08:59;99082.56;;;8.64;100.00
59110;BME280;44895;47.438;18.978;2023-04-15T06:12:03;99081.53;;;9.19;100.00
59110;BME280;44895;47.438;18.978;2023-04-15T06:15:09;99071.72;;;10.44;100.00
59110;BME280;44895;47.438;18.978;2023-04-15T06:18:13;99078.59;;;11.29;100.00
59110;BME280;44895;47.438;18.978;2023-04-15T06:21:17;99074.72;;;13.10;100.00
59110;BME280;44895;47.438;18.978;2023-04-15T06:24:21;99063.81;;;16.48;100.00
59110;BME280;44895;47.438;18.978;2023-04-15T06:27:25;99068.47;;;17.03;100.00
59110;BME280;44895;47.438;18.978;2023-04-15T06:30:29;99071.06;;;18.58;100.00
59110;BME280;44895;47.438;18.978;2023-04-15T06:33:33;99068.41;;;18.65;93.50
59110;BME280;44895;47.438;18.978;2023-04-15T06:36:37;99078.09;;;16.77;100.00
59110;BME280;44895;47.438;18.978;2023-04-15T06:39:41;99084.53;;;14.15;100.00
59110;BME280;44895;47.438;18.978;2023-04-15T06:42:45;99089.97;;;15.21;100.00
59110;BME280;44895;47.438;18.978;2023-04-15T06:45:49;99083.06;;;17.07;100.00
59110;BME280;44895;47.438;18.978;2023-04-15T06:48:53;99075.38;;;20.62;75.79
59110;BME280;44895;47.438;18.978;2023-04-15T06:51:57;99091.44;;;15.91;100.00
59110;BME280;44895;47.438;18.978;2023-04-15T06:55:01;99083.69;;;15.49;100.00
59110;BME280;44895;47.438;18.978;2023-04-15T06:58:04;99078.47;;;15.28;100.00
59110;BME280;44895;47.438;18.978;2023-04-15T07:01:08;99077.22;;;17.51;100.00
59110;BME280;44895;47.438;18.978;2023-04-15T07:04:12;99076.06;;;17.99;93.54
59110;BME280;44895;47.438;18.978;2023-04-15T07:07:16;99092.66;;;15.62;100.00
59110;BME280;44895;47.438;18.978;2023-04-15T07:10:20;99085.25;;;15.94;100.00
59110;BME280;44895;47.438;18.978;2023-04-15T07:13:23;99087.63;;;16.83;100.00
59110;BME280;44895;47.438;18.978;2023-04-15T07:16:28;99099.28;;;15.32;100.00
59110;BME280;44895;47.438;18.978;2023-04-15T07:19:32;99089.72;;;17.72;92.58
59110;BME280;44895;47.438;18.978;2023-04-15T07:22:35;99095.41;;;17.17;86.10
59110;BME280;44895;47.438;18.978;2023-04-15T07:25:39;99093.88;;;17.62;85.06
59110;BME280;44895;47.438;18.978;2023-04-15T07:28:43;99095.97;;;14.70;91.09
59110;BME280;44895;47.438;18.978;2023-04-15T07:31:48;99099.47;;;15.84;100.00
59110;BME280;44895;47.438;18.978;2023-04-15T07:34:52;99085.44;;;16.02;98.38
59110;BME280;44895;47.438;18.978;2023-04-15T07:37:57;99092.78;;;16.85;88.35
59110;BME280;44895;47.438;18.978;2023-04-15T07:41:00;99086.94;;;16.15;84.39
59110;BME280;44895;47.438;18.978;2023-04-15T07:44:04;99089.53;;;14.91;98.23
59110;BME280;44895;47.438;18.978;2023-04-15T07:47:08;99091.31;;;17.73;81.95
59110;BME280;44895;47.438;18.978;2023-04-15T07:50:12;99089.53;;;17.84;73.93
59110;BME280;44895;47.438;18.978;2023-04-15T07:53:17;99084.66;;;18.20;73.74
59110;BME280;44895;47.438;18.978;2023-04-15T07:56:21;99091.59;;;16.30;87.56
59110;BME280;44895;47.438;18.978;2023-04-15T07:59:24;99086.00;;;16.98;86.58
59110;BME280;44895;47.438;18.978;2023-04-15T08:02:30;99104.47;;;15.66;86.25
59110;BME280;44895;47.438;18.978;2023-04-15T08:05:34;99105.09;;;14.37;100.00
59110;BME280;44895;47.438;18.978;2023-04-15T08:08:37;99110.09;;;13.40;100.00
59110;BME280;44895;47.438;18.978;2023-04-15T08:11:41;99114.28;;;13.16;100.00
59110;BME280;44895;47.438;18.978;2023-04-15T08:14:45;99123.88;;;12.80;100.00
59110;BME280;44895;47.438;18.978;2023-04-15T08:17:49;99117.22;;;13.11;100.00
59110;BME280;44895;47.438;18.978;2023-04-15T08:20:53;99120.13;;;13.27;100.00
59110;BME280;44895;47.438;18.978;2023-04-15T08:23:57;99121.00;;;12.55;100.00
59110;BME280;44895;47.438;18.978;2023-04-15T08:27:01;99124.47;;;12.34;100.00
59110;BME280;44895;47.438;18.978;2023-04-15T08:30:07;99130.19;;;12.93;100.00
59110;BME280;44895;47.438;18.978;2023-04-15T08:33:11;99127.38;;;14.02;100.00
59110;BME280;44895;47.438;18.978;2023-04-15T08:36:14;99129.00;;;14.65;100.00
59110;BME280;44895;47.438;18.978;2023-04-15T08:39:18;99125.69;;;14.47;100.00
59110;BME280;44895;47.438;18.978;2023-04-15T08:42:30;99119.53;;;14.38;100.00
59110;BME280;44895;47.438;18.978;2023-04-15T08:45:37;99119.31;;;14.67;100.00
59110;BME280;44895;47.438;18.978;2023-04-15T08:48:42;99122.28;;;14.13;100.00
59110;BME280;44895;47.438;18.978;2023-04-15T08:51:47;99125.59;;;13.27;100.00
59110;BME280;44895;47.438;18.978;2023-04-15T08:54:55;99128.88;;;12.99;100.00
59110;BME280;44895;47.438;18.978;2023-04-15T08:58:01;99140.69;;;12.31;100.00
59110;BME280;44895;47.438;18.978;2023-04-15T09:01:05;99134.25;;;13.08;100.00
59110;BME280;44895;47.438;18.978;2023-04-15T09:04:09;99139.41;;;13.76;100.00
59110;BME280;44895;47.438;18.978;2023-04-15T09:07:15;99138.31;;;13.23;100.00
59110;BME280;44895;47.438;18.978;2023-04-15T09:10:19;99140.28;;;12.41;100.00
59110;BME280;44895;47.438;18.978;2023-04-15T09:13:23;99148.16;;;12.43;100.00
59110;BME280;44895;47.438;18.978;2023-04-15T09:16:26;99147.78;;;12.53;100.00
59110;BME280;44895;47.438;18.978;2023-04-15T09:19:31;99148.00;;;12.39;100.00
59110;BME280;44895;47.438;18.978;2023-04-15T09:22:36;99141.41;;;12.70;100.00
59110;BME280;44895;47.438;18.978;2023-04-15T09:25:41;99135.38;;;12.34;100.00
59110;BME280;44895;47.438;18.978;2023-04-15T09:28:44;99145.94;;;12.36;100.00
59110;BME280;44895;47.438;18.978;2023-04-15T09:31:48;99137.16;;;12.81;100.00
59110;BME280;44895;47.438;18.978;2023-04-15T09:34:52;99143.13;;;12.53;100.00
59110;BME280;44895;47.438;18.978;2023-04-15T09:38:02;99152.50;;;11.96;100.00
59110;BME280;44895;47.438;18.978;2023-04-15T09:41:16;99144.94;;;12.11;100.00
59110;BME280;44895;47.438;18.978;2023-04-15T09:44:24;99158.56;;;12.40;100.00
59110;BME280;44895;47.438;18.978;2023-04-15T09:47:29;99154.38;;;12.73;100.00
59110;BME280;44895;47.438;18.978;2023-04-15T09:50:40;99147.97;;;12.69;100.00
59110;BME280;44895;47.438;18.978;2023-04-15T09:53:43;99148.69;;;12.27;100.00
59110;BME280;44895;47.438;18.978;2023-04-15T09:56:48;99163.22;;;11.84;100.00
59110;BME280;44895;47.438;18.978;2023-04-15T09:59:52;99164.22;;;11.70;100.00
59110;BME280;44895;47.438;18.978;2023-04-15T10:02:56;99166.97;;;11.62;100.00
59110;BME280;44895;47.438;18.978;2023-04-15T10:06:00;99172.25;;;11.49;100.00
59110;BME280;44895;47.438;18.978;2023-04-15T10:09:04;99167.63;;;11.32;100.00
59110;BME280;44895;47.438;18.978;2023-04-15T10:12:09;99179.47;;;11.36;100.00
59110;BME280;44895;47.438;18.978;2023-04-15T10:15:15;99166.84;;;11.05;100.00
59110;BME280;44895;47.438;18.978;2023-04-15T10:18:20;99172.59;;;11.39;100.00
59110;BME280;44895;47.438;18.978;2023-04-15T10:21:26;99169.53;;;11.67;100.00
59110;BME280;44895;47.438;18.978;2023-04-15T10:24:31;99174.72;;;12.07;100.00
59110;BME280;44895;47.438;18.978;2023-04-15T10:27:35;99173.25;;;12.10;100.00
59110;BME280;44895;47.438;18.978;2023-04-15T10:30:39;99175.91;;;11.62;100.00
59110;BME280;44895;47.438;18.978;2023-04-15T10:33:43;99181.38;;;11.09;100.00
59110;BME280;44895;47.438;18.978;2023-04-15T10:36:48;99196.09;;;11.17;100.00
59110;BME280;44895;47.438;18.978;2023-04-15T10:39:51;99194.31;;;11.04;100.00
59110;BME280;44895;47.438;18.978;2023-04-15T10:42:57;99188.09;;;11.12;100.00
59110;BME280;44895;47.438;18.978;2023-04-15T10:46:00;99191.47;;;11.18;100.00
59110;BME280;44895;47.438;18.978;2023-04-15T10:49:15;99195.94;;;11.14;100.00
59110;BME280;44895;47.438;18.978;2023-04-15T10:52:24;99198.81;;;11.00;100.00
59110;BME280;44895;47.438;18.978;2023-04-15T10:55:32;99197.38;;;11.37;100.00
59110;BME280;44895;47.438;18.978;2023-04-15T10:58:41;99201.19;;;11.54;100.00
59110;BME280;44895;47.438;18.978;2023-04-15T11:01:55;99197.69;;;10.92;100.00
59110;BME280;44895;47.438;18.978;2023-04-15T11:04:59;99197.53;;;11.15;100.00
59110;BME280;44895;47.438;18.978;2023-04-15T11:08:04;99202.78;;;10.93;100.00
59110;BME280;44895;47.438;18.978;2023-04-15T11:11:08;99205.97;;;10.96;100.00
59110;BME280;44895;47.438;18.978;2023-04-15T11:14:16;99207.72;;;10.91;100.00
59110;BME280;44895;47.438;18.978;2023-04-15T11:17:28;99200.41;;;11.09;100.00
59110;BME280;44895;47.438;18.978;2023-04-15T11:20:33;99205.69;;;11.32;100.00
59110;BME280;44895;47.438;18.978;2023-04-15T11:23:41;99199.94;;;11.25;100.00
59110;BME280;44895;47.438;18.978;2023-04-15T11:26:58;99203.28;;;11.39;100.00
59110;BME280;44895;47.438;18.978;2023-04-15T11:33:24;99200.13;;;11.29;100.00
59110;BME280;44895;47.438;18.978;2023-04-15T11:36:29;99196.41;;;11.51;100.00
59110;BME280;44895;47.438;18.978;2023-04-15T11:39:36;99194.97;;;11.45;100.00
59110;BME280;44895;47.438;18.978;2023-04-15T11:42:40;99195.91;;;11.49;100.00
59110;BME280;44895;47.438;18.978;2023-04-15T11:48:59;99208.91;;;11.34;100.00
59110;BME280;44895;47.438;18.978;2023-04-15T11:52:09;99201.34;;;11.49;100.00
59110;BME280;44895;47.438;18.978;2023-04-15T11:55:13;99209.38;;;11.45;100.00
59110;BME280;44895;47.438;18.978;2023-04-15T11:58:19;99207.13;;;11.65;100.00
59110;BME280;44895;47.438;18.978;2023-04-15T12:01:37;99208.22;;;11.72;100.00
59110;BME280;44895;47.438;18.978;2023-04-15T12:04:42;99205.06;;;11.44;100.00
59110;BME280;44895;47.438;18.978;2023-04-15T12:07:59;99203.13;;;11.62;100.00
59110;BME280;44895;47.438;18.978;2023-04-15T12:11:03;99219.94;;;11.55;100.00
59110;BME280;44895;47.438;18.978;2023-04-15T12:14:27;99212.06;;;11.71;100.00
59110;BME280;44895;47.438;18.978;2023-04-15T12:17:33;99203.09;;;11.80;100.00
59110;BME280;44895;47.438;18.978;2023-04-15T12:20:43;99210.78;;;11.78;100.00
59110;BME280;44895;47.438;18.978;2023-04-15T12:23:53;99203.56;;;11.82;100.00
59110;BME280;44895;47.438;18.978;2023-04-15T12:27:10;99214.78;;;11.63;100.00
59110;BME280;44895;47.438;18.978;2023-04-15T12:30:14;99215.59;;;11.63;100.00
59110;BME280;44895;47.438;18.978;2023-04-15T12:33:18;99210.44;;;11.70;100.00
59110;BME280;44895;47.438;18.978;2023-04-15T12:36:22;99210.66;;;11.48;100.00
59110;BME280;44895;47.438;18.978;2023-04-15T12:39:28;99218.66;;;11.44;100.00
59110;BME280;44895;47.438;18.978;2023-04-15T12:42:31;99215.78;;;11.40;100.00
59110;BME280;44895;47.438;18.978;2023-04-15T12:45:36;99223.44;;;11.47;100.00
59110;BME280;44895;47.438;18.978;2023-04-15T12:48:40;99226.81;;;11.53;100.00
59110;BME280;44895;47.438;18.978;2023-04-15T12:51:44;99222.47;;;11.69;100.00
59110;BME280;44895;47.438;18.978;2023-04-15T12:54:48;99222.47;;;11.87;100.00
59110;BME280;44895;47.438;18.978;2023-04-15T12:57:51;99226.13;;;11.91;100.00
59110;BME280;44895;47.438;18.978;2023-04-15T13:00:55;99212.97;;;12.02;100.00
59110;BME280;44895;47.438;18.978;2023-04-15T13:03:59;99217.81;;;11.96;100.00
59110;BME280;44895;47.438;18.978;2023-04-15T13:07:03;99236.25;;;11.55;100.00
59110;BME280;44895;47.438;18.978;2023-04-15T13:10:08;99226.44;;;11.89;100.00
59110;BME280;44895;47.438;18.978;2023-04-15T13:13:12;99223.56;;;12.03;100.00
59110;BME280;44895;47.438;18.978;2023-04-15T13:16:15;99222.13;;;11.88;100.00
59110;BME280;44895;47.438;18.978;2023-04-15T13:19:19;99226.13;;;11.82;100.00
59110;BME280;44895;47.438;18.978;2023-04-15T13:22:23;99232.84;;;11.94;100.00
59110;BME280;44895;47.438;18.978;2023-04-15T13:25:27;99231.25;;;11.84;100.00
59110;BME280;44895;47.438;18.978;2023-04-15T13:28:31;99234.53;;;12.24;100.00
59110;BME280;44895;47.438;18.978;2023-04-15T13:31:34;99235.94;;;12.39;100.00
59110;BME280;44895;47.438;18.978;2023-04-15T13:34:38;99226.91;;;12.09;100.00
59110;BME280;44895;47.438;18.978;2023-04-15T13:37:42;99226.91;;;12.09;100.00
59110;BME280;44895;47.438;18.978;2023-04-15T13:40:46;99234.09;;;12.14;100.00
59110;BME280;44895;47.438;18.978;2023-04-15T13:43:50;99243.53;;;12.16;100.00
59110;BME280;44895;47.438;18.978;2023-04-15T13:46:53;99245.28;;;12.21;100.00
59110;BME280;44895;47.438;18.978;2023-04-15T13:49:57;99240.47;;;12.27;100.00
59110;BME280;44895;47.438;18.978;2023-04-15T13:53:01;99236.78;;;12.31;100.00
59110;BME280;44895;47.438;18.978;2023-04-15T13:56:09;99236.41;;;12.42;100.00
59110;BME280;44895;47.438;18.978;2023-04-15T13:59:12;99235.34;;;12.64;100.00
59110;BME280;44895;47.438;18.978;2023-04-15T14:02:16;99248.75;;;12.78;100.00
59110;BME280;44895;47.438;18.978;2023-04-15T14:05:20;99255.97;;;12.35;100.00
59110;BME280;44895;47.438;18.978;2023-04-15T14:08:24;99252.66;;;12.12;100.00
59110;BME280;44895;47.438;18.978;2023-04-15T14:11:28;99254.88;;;12.18;100.00
59110;BME280;44895;47.438;18.978;2023-04-15T14:14:32;99252.34;;;12.13;100.00
59110;BME280;44895;47.438;18.978;2023-04-15T14:17:36;99265.94;;;12.13;100.00
59110;BME280;44895;47.438;18.978;2023-04-15T14:20:39;99266.75;;;12.14;100.00
59110;BME280;44895;47.438;18.978;2023-04-15T14:23:43;99254.94;;;11.83;100.00
59110;BME280;44895;47.438;18.978;2023-04-15T14:26:47;99270.00;;;11.63;100.00
59110;BME280;44895;47.438;18.978;2023-04-15T14:29:51;99258.13;;;11.85;100.00
59110;BME280;44895;47.438;18.978;2023-04-15T14:32:56;99261.66;;;12.03;100.00
59110;BME280;44895;47.438;18.978;2023-04-15T14:36:00;99266.44;;;11.89;100.00
59110;BME280;44895;47.438;18.978;2023-04-15T14:39:03;99267.56;;;11.88;100.00
59110;BME280;44895;47.438;18.978;2023-04-15T14:42:08;99266.44;;;11.89;100.00
59110;BME280;44895;47.438;18.978;2023-04-15T14:45:12;99279.91;;;11.77;100.00
59110;BME280;44895;47.438;18.978;2023-04-15T14:48:15;99279.75;;;11.64;100.00
59110;BME280;44895;47.438;18.978;2023-04-15T14:51:19;99271.09;;;11.62;100.00
59110;BME280;44895;47.438;18.978;2023-04-15T14:54:23;99283.88;;;11.88;100.00
59110;BME280;44895;47.438;18.978;2023-04-15T14:57:27;99285.97;;;11.91;100.00
59110;BME280;44895;47.438;18.978;2023-04-15T15:00:31;99281.34;;;11.74;100.00
59110;BME280;44895;47.438;18.978;2023-04-15T15:03:35;99291.25;;;11.61;100.00
59110;BME280;44895;47.438;18.978;2023-04-15T15:06:39;99290.31;;;11.57;100.00
59110;BME280;44895;47.438;18.978;2023-04-15T15:09:43;99284.22;;;11.51;100.00
59110;BME280;44895;47.438;18.978;2023-04-15T15:12:46;99290.31;;;11.48;100.00
59110;BME280;44895;47.438;18.978;2023-04-15T15:15:51;99300.53;;;11.42;100.00
59110;BME280;44895;47.438;18.978;2023-04-15T15:18:55;99303.06;;;11.30;100.00
59110;BME280;44895;47.438;18.978;2023-04-15T15:21:58;99298.09;;;11.32;100.00
59110;BME280;44895;47.438;18.978;2023-04-15T15:25:03;99308.81;;;11.37;100.00
59110;BME280;44895;47.438;18.978;2023-04-15T15:28:07;99303.69;;;11.18;100.00
59110;BME280;44895;47.438;18.978;2023-04-15T15:31:11;99309.44;;;11.17;100.00
59110;BME280;44895;47.438;18.978;2023-04-15T15:34:15;99319.66;;;11.11;100.00
59110;BME280;44895;47.438;18.978;2023-04-15T15:37:19;99332.75;;;11.09;100.00
59110;BME280;44895;47.438;18.978;2023-04-15T15:40:23;99336.34;;;10.78;100.00
59110;BME280;44895;47.438;18.978;2023-04-15T15:43:27;99341.03;;;10.95;100.00
59110;BME280;44895;47.438;18.978;2023-04-15T15:46:30;99356.06;;;11.01;100.00
59110;BME280;44895;47.438;18.978;2023-04-15T15:49:34;99360.50;;;10.88;100.00
59110;BME280;44895;47.438;18.978;2023-04-15T15:52:38;99359.78;;;10.74;100.00
59110;BME280;44895;47.438;18.978;2023-04-15T15:55:42;99367.16;;;10.51;100.00
59110;BME280;44895;47.438;18.978;2023-04-15T15:58:46;99365.25;;;10.51;100.00
59110;BME280;44895;47.438;18.978;2023-04-15T16:01:50;99358.75;;;10.61;100.00
59110;BME280;44895;47.438;18.978;2023-04-15T16:04:54;99352.59;;;10.69;100.00